createdAt,value
2022-11-23T09:03:10.568Z,20.58
2022-11-23T09:05:37.814Z,21.80
2022-11-23T09:08:04.341Z,20.77
2022-11-23T09:10:30.784Z,20.40
2022-11-23T09:12:58.338Z,19.23
2022-11-23T09:15:24.811Z,20.05
2022-11-23T09:17:51.965Z,19.08
2022-11-23T09:20:18.445Z,22.60
2022-11-23T09:22:49.912Z,19.25
2022-11-23T09:25:17.372Z,19.50
2022-11-23T09:27:43.784Z,17.98
2022-11-23T09:30:10.571Z,20.13
2022-11-23T09:32:37.138Z,19.92
2022-11-23T09:35:03.809Z,18.73
2022-11-23T09:37:30.384Z,21.77
2022-11-23T09:39:56.857Z,20.30
2022-11-23T09:42:29.347Z,19.38
2022-11-23T09:45:21.966Z,19.03
2022-11-23T09:47:48.426Z,19.95
2022-11-23T09:50:24.575Z,24.38
2022-11-23T09:52:51.625Z,21.30
2022-11-23T09:55:24.081Z,19.73
2022-11-23T09:57:52.150Z,21.52
2022-11-23T10:00:22.858Z,21.23
2022-11-23T10:02:49.694Z,20.90
2022-11-23T10:05:21.266Z,23.23
2022-11-23T10:07:53.693Z,22.80
2022-11-23T10:10:38.652Z,20.67
2022-11-23T10:13:27.057Z,20.67
2022-11-23T10:16:01.998Z,19.75
2022-11-23T10:18:46.934Z,18.63
2022-11-23T10:21:31.899Z,19.95
2022-11-23T10:23:58.321Z,21.75
2022-11-23T10:26:28.369Z,21.83
2022-11-23T10:28:55.817Z,19.92
2022-11-23T10:31:23.846Z,21.38
2022-11-23T10:34:04.623Z,21.55
2022-11-23T10:36:31.059Z,23.13
2022-11-23T10:38:59.122Z,21.17
2022-11-23T10:41:25.926Z,21.70
2022-11-23T10:43:52.418Z,20.92
2022-11-23T10:46:29.737Z,18.48
2022-11-23T10:49:07.975Z,17.70
2022-11-23T10:51:34.664Z,19.70
2022-11-23T10:54:05.962Z,22.00
2022-11-23T10:56:33.207Z,23.85
2022-11-23T10:58:59.915Z,23.35
2022-11-23T11:01:27.869Z,22.20
2022-11-23T11:03:55.506Z,22.83
2022-11-23T11:06:26.296Z,19.83
2022-11-23T11:08:56.762Z,21.15
2022-11-23T11:11:31.278Z,22.83
2022-11-23T11:14:02.150Z,19.42
2022-11-23T11:16:32.866Z,21.63
2022-11-23T11:18:59.991Z,18.75
2022-11-23T11:21:29.543Z,20.23
2022-11-23T11:24:06.239Z,20.27
2022-11-23T11:26:33.980Z,22.65
2022-11-23T11:29:05.141Z,19.60
2022-11-23T11:31:34.397Z,21.42
2022-11-23T11:34:09.928Z,22.55
2022-11-23T11:36:39.322Z,21.88
2022-11-23T11:39:19.377Z,20.92
2022-11-23T11:41:47.200Z,22.05
2022-11-23T11:44:21.725Z,22.75
2022-11-23T11:46:51.552Z,24.48
2022-11-23T11:49:24.337Z,23.50
2022-11-23T11:51:55.987Z,24.05
2022-11-23T11:54:22.593Z,21.58
2022-11-23T11:56:53.081Z,23.95
2022-11-23T11:59:28.644Z,22.88
2022-11-23T12:02:21.324Z,24.80
2022-11-23T12:04:56.362Z,24.65
2022-11-23T12:07:28.919Z,23.42
2022-11-23T12:10:00.615Z,22.83
2022-11-23T12:12:34.499Z,24.35
2022-11-23T12:15:00.985Z,23.58
2022-11-23T12:17:45.828Z,23.52
2022-11-23T12:20:15.070Z,26.25
2022-11-23T12:22:59.876Z,25.63
2022-11-23T12:25:41.929Z,25.35
2022-11-23T12:28:26.932Z,26.27
2022-11-23T12:31:11.363Z,23.35
2022-11-23T12:33:53.667Z,25.25
2022-11-23T12:36:26.129Z,24.75
2022-11-23T12:38:55.443Z,27.10
2022-11-23T12:42:00.426Z,27.10
2022-11-23T12:44:33.173Z,26.23
2022-11-23T12:47:05.898Z,30.92
2022-11-23T12:49:41.212Z,30.77
2022-11-23T12:52:26.312Z,27.15
2022-11-23T12:55:01.851Z,28.75
2022-11-23T12:57:32.152Z,27.88
2022-11-23T13:00:14.765Z,29.10
2022-11-23T13:02:50.479Z,34.63
2022-11-23T13:05:19.914Z,34.20
2022-11-23T13:07:57.957Z,31.35
2022-11-23T13:10:44.025Z,29.80
2022-11-23T13:13:29.139Z,31.73
2022-11-23T13:16:16.963Z,31.42
2022-11-23T13:19:04.972Z,31.27
2022-11-23T13:21:39.904Z,32.42
2022-11-23T13:24:25.016Z,32.65
2022-11-23T13:27:31.299Z,30.67
2022-11-23T13:30:00.291Z,30.20
2022-11-23T13:32:35.639Z,30.73
2022-11-23T13:35:02.133Z,29.77
2022-11-23T13:37:28.553Z,30.73
2022-11-23T13:39:55.232Z,29.25
2022-11-23T13:42:21.940Z,28.45
2022-11-23T13:44:48.357Z,30.63
2022-11-23T13:47:17.521Z,31.52
2022-11-23T13:49:51.403Z,31.85
2022-11-23T13:52:20.625Z,33.13
2022-11-23T13:55:09.763Z,31.50
2022-11-23T13:57:48.462Z,30.33
2022-11-23T14:00:33.725Z,32.17
2022-11-23T14:03:18.795Z,32.13
2022-11-23T14:05:48.108Z,34.00
2022-11-23T14:08:16.424Z,36.25
2022-11-23T14:10:43.081Z,38.67
2022-11-23T14:13:20.634Z,37.30
2022-11-23T14:15:54.059Z,38.95
2022-11-23T14:21:19.428Z,34.83
2022-11-23T14:24:09.852Z,37.05
2022-11-23T14:26:46.893Z,37.58
2022-11-23T14:29:25.351Z,36.20
2022-11-23T14:32:09.945Z,35.88
2022-11-23T14:34:43.007Z,36.85
2022-11-23T14:37:09.399Z,35.53
2022-11-23T14:39:41.815Z,35.60
2022-11-23T14:42:13.742Z,38.35
2022-11-23T14:44:41.448Z,39.35
2022-11-23T14:47:09.708Z,36.72
2022-11-23T14:49:36.714Z,41.38
2022-11-23T14:52:04.103Z,41.15
2022-11-23T14:54:31.047Z,42.28
2022-11-23T14:56:59.920Z,43.90
2022-11-23T14:59:27.702Z,37.83
2022-11-23T15:01:54.160Z,37.25
2022-11-23T15:04:23.710Z,40.67
2022-11-23T15:06:51.891Z,36.92
2022-11-23T15:09:27.301Z,39.03
2022-11-23T15:12:05.117Z,39.80
2022-11-23T15:14:31.849Z,38.42
2022-11-23T15:17:12.682Z,38.67
2022-11-23T15:19:39.126Z,39.50
2022-11-23T15:22:05.622Z,35.97
2022-11-23T15:24:32.308Z,37.10
2022-11-23T15:27:09.311Z,41.80
2022-11-23T15:29:39.382Z,41.63
2022-11-23T15:32:31.951Z,43.10
2022-11-23T15:35:01.090Z,37.75
2022-11-23T15:37:28.239Z,38.00
2022-11-23T15:39:55.552Z,35.50
2022-11-23T15:42:23.759Z,34.38
2022-11-23T15:44:51.381Z,34.95
2022-11-23T15:47:27.516Z,37.33
2022-11-23T15:50:01.924Z,40.50
2022-11-23T15:52:34.685Z,35.33
2022-11-23T15:55:09.198Z,32.40
2022-11-23T15:57:37.225Z,30.17
2022-11-23T16:00:04.473Z,30.02
2022-11-23T16:02:38.217Z,29.73
2022-11-23T16:05:11.536Z,31.85
2022-11-23T16:07:53.440Z,28.55
2022-11-23T16:10:24.798Z,28.90
2022-11-23T16:12:55.807Z,28.42
2022-11-23T16:15:34.504Z,26.95
2022-11-23T16:18:02.279Z,29.02
2022-11-23T16:20:29.461Z,30.83
2022-11-23T16:22:56.749Z,29.15
2022-11-23T16:25:23.180Z,28.42
2022-11-23T16:27:58.493Z,32.70
2022-11-23T16:30:39.527Z,31.42
2022-11-23T16:33:06.136Z,32.10
2022-11-23T16:35:32.649Z,33.00
2022-11-23T16:37:59.064Z,31.65
2022-11-23T16:40:25.581Z,31.85
2022-11-23T16:42:52.717Z,33.35
2022-11-23T16:45:19.193Z,29.23
2022-11-23T16:47:53.661Z,29.75
2022-11-23T16:50:20.411Z,27.90
2022-11-23T16:52:46.851Z,29.33
2022-11-23T16:55:13.357Z,34.45
2022-11-23T16:57:40.157Z,32.95
2022-11-23T17:00:08.316Z,34.13
2022-11-23T17:02:34.879Z,33.72
2022-11-23T17:05:01.459Z,34.42
2022-11-23T17:07:28.062Z,31.65
2022-11-23T17:09:54.742Z,34.55
2022-11-23T17:12:22.467Z,32.60
2022-11-23T17:14:49.430Z,32.90
2022-11-23T17:17:21.211Z,32.75
2022-11-23T17:19:51.224Z,33.92
2022-11-23T17:22:18.392Z,34.85
2022-11-23T17:24:45.188Z,29.27
2022-11-23T17:27:13.588Z,31.08
2022-11-23T17:29:42.154Z,33.15
2022-11-23T17:32:10.381Z,30.90
2022-11-23T17:34:36.811Z,30.40
2022-11-23T17:37:03.373Z,31.20
2022-11-23T17:39:29.987Z,33.08
2022-11-23T17:42:01.619Z,31.73
2022-11-23T17:44:31.150Z,37.80
2022-11-23T17:46:58.715Z,35.10
2022-11-23T17:49:28.489Z,34.80
2022-11-23T17:51:55.724Z,32.75
2022-11-23T17:54:22.788Z,30.25
2022-11-23T17:56:49.927Z,31.95
2022-11-23T17:59:16.860Z,30.58
2022-11-23T18:01:43.395Z,32.08
2022-11-23T18:04:10.070Z,30.55
2022-11-23T18:06:36.630Z,35.22
2022-11-23T18:09:03.127Z,33.50
2022-11-23T18:11:29.541Z,30.48
2022-11-23T18:13:56.056Z,30.98
2022-11-23T18:16:22.964Z,33.97
2022-11-23T18:18:50.988Z,33.08
2022-11-23T18:21:18.033Z,31.75
2022-11-23T18:23:44.566Z,28.58
2022-11-23T18:26:16.335Z,30.60
2022-11-23T18:28:42.984Z,31.55
2022-11-23T18:31:09.540Z,31.27
2022-11-23T18:33:36.523Z,29.95
2022-11-23T18:36:05.655Z,25.63
2022-11-23T18:38:33.110Z,28.17
2022-11-23T18:40:59.636Z,28.85
2022-11-23T18:43:26.187Z,27.70
2022-11-23T18:45:53.104Z,28.88
2022-11-23T18:48:19.660Z,26.98
2022-11-23T18:50:46.177Z,30.45
2022-11-23T18:53:12.690Z,33.20
2022-11-23T18:55:39.105Z,32.28
2022-11-23T18:58:05.627Z,31.95
2022-11-23T19:00:32.201Z,33.03
2022-11-23T19:03:00.007Z,35.38
2022-11-23T19:05:27.545Z,32.35
2022-11-23T19:07:57.388Z,32.25
2022-11-23T19:10:23.957Z,32.33
2022-11-23T19:12:50.411Z,26.85
2022-11-23T19:15:16.948Z,25.60
2022-11-23T19:17:43.489Z,26.73
2022-11-23T19:20:10.363Z,27.85
2022-11-23T19:22:36.809Z,27.35
2022-11-23T19:25:03.505Z,27.73
2022-11-23T19:27:31.200Z,33.15
2022-11-23T19:29:57.670Z,26.83
2022-11-23T19:32:24.145Z,30.98
2022-11-23T19:34:50.596Z,31.73
2022-11-23T19:37:17.494Z,30.00
2022-11-23T19:39:44.033Z,28.48
2022-11-23T19:42:10.460Z,30.50
2022-11-23T19:44:36.968Z,31.23
2022-11-23T19:47:07.245Z,32.53
2022-11-23T19:49:36.704Z,28.85
2022-11-23T19:52:05.184Z,33.83
2022-11-23T19:54:31.619Z,32.00
2022-11-23T19:56:58.081Z,35.38
2022-11-23T19:59:25.380Z,34.75
2022-11-23T20:01:51.902Z,32.10
2022-11-23T20:04:18.465Z,34.40
2022-11-23T20:06:44.984Z,31.98
2022-11-23T20:09:19.315Z,29.27
2022-11-23T20:11:50.328Z,30.80
2022-11-23T20:14:17.682Z,74.40
2022-11-23T20:16:44.136Z,33.28
2022-11-23T20:19:10.701Z,33.88
2022-11-23T20:21:37.314Z,32.95
2022-11-23T20:24:07.830Z,32.60
2022-11-23T20:26:36.173Z,36.55
2022-11-23T20:29:03.791Z,31.38
2022-11-23T20:31:31.223Z,29.02
2022-11-23T20:33:57.723Z,29.42
2022-11-23T20:36:25.462Z,29.02
2022-11-23T20:38:52.738Z,27.48
2022-11-23T20:41:26.885Z,29.48
2022-11-23T20:43:55.291Z,29.50
2022-11-23T20:46:38.596Z,28.48
2022-11-23T20:49:08.939Z,28.67
2022-11-23T20:51:35.674Z,27.08
2022-11-23T20:54:02.472Z,30.10
2022-11-23T20:56:29.363Z,30.33
2022-11-23T20:58:56.952Z,28.65
2022-11-23T21:01:23.995Z,27.13
2022-11-23T21:03:54.305Z,31.25
2022-11-23T21:06:21.340Z,27.38
2022-11-23T21:08:48.787Z,28.83
2022-11-23T21:11:35.252Z,32.25
2022-11-23T21:14:12.381Z,29.40
2022-11-23T21:16:45.633Z,28.98
2022-11-23T21:19:13.040Z,30.02
2022-11-23T21:21:39.958Z,27.23
2022-11-23T21:24:06.842Z,29.73
2022-11-23T21:26:33.628Z,29.55
2022-11-23T21:29:00.101Z,29.52
2022-11-23T21:31:26.830Z,26.58
2022-11-23T21:33:54.192Z,25.00
2022-11-23T21:36:22.388Z,26.58
2022-11-23T21:38:48.847Z,29.27
2022-11-23T21:41:16.305Z,28.55
2022-11-23T21:43:42.831Z,28.63
2022-11-23T21:46:11.186Z,26.13
2022-11-23T21:48:38.578Z,28.33
2022-11-23T21:51:10.422Z,27.92
2022-11-23T21:53:39.089Z,26.65
2022-11-23T21:56:06.976Z,25.88
2022-11-23T21:58:33.893Z,26.23
2022-11-23T22:01:12.556Z,26.75
2022-11-23T22:06:27.934Z,28.30
2022-11-23T22:08:55.930Z,27.38
2022-11-23T22:11:22.570Z,23.92
2022-11-23T22:13:52.557Z,26.38
2022-11-23T22:16:23.620Z,27.92
2022-11-23T22:18:55.317Z,28.48
2022-11-23T22:21:24.760Z,28.63
2022-11-23T22:23:51.417Z,28.52
2022-11-23T22:26:18.962Z,28.13
2022-11-23T22:28:47.197Z,29.48
2022-11-23T22:31:14.907Z,29.23
2022-11-23T22:33:42.098Z,26.20
2022-11-23T22:36:19.272Z,28.40
2022-11-23T22:38:46.159Z,28.90
2022-11-23T22:41:16.558Z,27.48
2022-11-23T22:43:43.796Z,26.40
2022-11-23T22:46:11.879Z,28.15
2022-11-23T22:48:39.356Z,26.38
2022-11-23T22:51:06.636Z,27.52
2022-11-23T22:53:33.450Z,26.55
2022-11-23T22:56:02.039Z,26.15
2022-11-23T22:58:29.162Z,24.02
2022-11-23T23:00:56.432Z,24.70
2022-11-23T23:03:23.598Z,23.30
2022-11-23T23:05:53.745Z,24.67
2022-11-23T23:08:20.436Z,25.23
2022-11-23T23:10:47.191Z,23.90
2022-11-23T23:13:13.877Z,23.38
2022-11-23T23:15:40.736Z,24.42
2022-11-23T23:18:07.437Z,23.63
2022-11-23T23:20:34.511Z,28.08
2022-11-23T23:23:01.261Z,26.88
2022-11-23T23:25:27.918Z,23.63
2022-11-23T23:27:54.595Z,27.58
2022-11-23T23:30:21.329Z,27.20
2022-11-23T23:32:47.964Z,27.58
2022-11-23T23:35:14.720Z,26.48
2022-11-23T23:37:41.370Z,23.58
2022-11-23T23:40:08.233Z,27.08
2022-11-23T23:42:34.895Z,26.23
2022-11-23T23:45:02.507Z,25.65
2022-11-23T23:47:29.197Z,22.48
2022-11-23T23:49:55.839Z,23.75
2022-11-23T23:52:22.527Z,23.88
2022-11-23T23:54:49.188Z,23.10
2022-11-23T23:57:15.847Z,24.30
2022-11-23T23:59:42.552Z,23.17
